createdAt,value
2018-10-06T00:00:25.338Z,49.15
2018-10-06T00:02:54.417Z,49.78
2018-10-06T00:05:23.556Z,49.81
2018-10-06T00:07:52.559Z,49.69
2018-10-06T00:10:21.427Z,50.33
2018-10-06T00:12:50.299Z,51.03
2018-10-06T00:15:19.516Z,51.82
2018-10-06T00:17:48.498Z,51.66
2018-10-06T00:20:17.710Z,51.37
2018-10-06T00:22:46.885Z,51.87
2018-10-06T00:25:15.729Z,51.53
2018-10-06T00:27:44.761Z,52.81
2018-10-06T00:30:14.075Z,52.63
2018-10-06T00:32:43.198Z,52.93
2018-10-06T00:35:12.523Z,52.15
2018-10-06T00:37:41.723Z,52.81
2018-10-06T00:40:10.866Z,51.81
2018-10-06T00:42:39.970Z,52.54
2018-10-06T00:45:09.133Z,52.95
2018-10-06T00:47:38.133Z,52.94
2018-10-06T00:50:07.218Z,52.95
2018-10-06T00:52:36.178Z,52.90
2018-10-06T00:55:05.549Z,53.54
2018-10-06T00:57:34.406Z,53.53
2018-10-06T01:00:03.282Z,53.74
2018-10-06T01:02:32.379Z,54.30
2018-10-06T01:05:01.230Z,53.73
2018-10-06T01:07:30.616Z,52.61
2018-10-06T01:09:59.549Z,52.49
2018-10-06T01:12:28.748Z,52.95
2018-10-06T01:14:57.662Z,52.79
2018-10-06T01:17:26.756Z,51.84
2018-10-06T01:19:55.641Z,52.52
2018-10-06T01:22:24.246Z,52.53
2018-10-06T01:24:52.886Z,51.63
2018-10-06T01:27:21.833Z,52.43
2018-10-06T01:29:50.738Z,52.42
2018-10-06T01:32:19.522Z,52.51
2018-10-06T01:34:48.321Z,52.47
2018-10-06T01:37:17.330Z,52.52
2018-10-06T01:39:46.219Z,52.81
2018-10-06T01:42:15.381Z,53.33
2018-10-06T01:44:44.579Z,54.04
2018-10-06T01:47:13.542Z,52.70
2018-10-06T01:49:42.333Z,53.24
2018-10-06T01:52:11.489Z,53.80
2018-10-06T01:54:40.238Z,53.49
2018-10-06T01:57:09.183Z,53.67
2018-10-06T01:59:38.159Z,53.82
2018-10-06T02:02:07.298Z,53.62
2018-10-06T02:04:36.194Z,53.09
2018-10-06T02:07:05.243Z,53.32
2018-10-06T02:09:34.233Z,52.88
2018-10-06T02:12:03.693Z,53.21
2018-10-06T02:14:32.327Z,53.03
2018-10-06T02:17:01.212Z,53.30
2018-10-06T02:19:30.582Z,53.36
2018-10-06T02:21:59.584Z,53.74
2018-10-06T02:24:28.405Z,54.17
2018-10-06T02:26:57.700Z,53.77
2018-10-06T02:29:26.509Z,54.20
2018-10-06T02:31:55.359Z,55.21
2018-10-06T02:34:24.408Z,54.98
2018-10-06T02:36:53.424Z,55.45
2018-10-06T02:39:23.547Z,54.83
2018-10-06T02:41:52.429Z,55.30
2018-10-06T02:44:21.330Z,55.90
2018-10-06T02:46:50.125Z,55.00
2018-10-06T02:49:19.232Z,56.39
2018-10-06T02:51:48.369Z,55.88
2018-10-06T02:54:17.571Z,55.91
2018-10-06T02:56:46.274Z,55.67
2018-10-06T02:59:15.228Z,56.20
2018-10-06T03:01:44.115Z,56.29
2018-10-06T03:04:13.079Z,55.87
2018-10-06T03:06:41.975Z,56.79
2018-10-06T03:09:11.641Z,57.30
2018-10-06T03:11:40.591Z,57.67
2018-10-06T03:14:09.776Z,57.57
2018-10-06T03:16:38.957Z,58.71
2018-10-06T03:19:08.340Z,58.48
2018-10-06T03:21:37.261Z,58.73
2018-10-06T03:24:06.703Z,59.10
2018-10-06T03:26:35.803Z,59.20
2018-10-06T03:29:04.855Z,59.17
2018-10-06T03:31:33.555Z,58.30
2018-10-06T03:34:02.575Z,58.56
2018-10-06T03:36:31.466Z,58.65
2018-10-06T03:39:01.495Z,58.45
2018-10-06T03:41:30.564Z,59.32
2018-10-06T03:43:59.569Z,59.04
2018-10-06T03:46:28.851Z,59.26
2018-10-06T03:48:58.250Z,59.15
2018-10-06T03:51:27.106Z,59.81
2018-10-06T03:53:56.289Z,59.52
2018-10-06T03:56:25.230Z,59.02
2018-10-06T03:58:54.227Z,59.20
2018-10-06T04:01:23.248Z,59.87
2018-10-06T04:03:52.292Z,60.00
2018-10-06T04:06:21.322Z,59.18
2018-10-06T04:08:50.436Z,59.26
2018-10-06T04:11:19.861Z,58.98
2018-10-06T04:13:48.622Z,59.34
2018-10-06T04:16:17.433Z,59.65
2018-10-06T04:18:46.140Z,59.27
2018-10-06T04:21:15.485Z,59.49
2018-10-06T04:23:44.357Z,59.13
2018-10-06T04:26:13.079Z,59.49
2018-10-06T04:28:41.886Z,59.32
2018-10-06T04:31:11.063Z,60.21
2018-10-06T04:33:39.951Z,59.52
2018-10-06T04:36:09.729Z,59.68
2018-10-06T04:38:38.466Z,60.21
2018-10-06T04:41:07.803Z,59.92
2018-10-06T04:43:37.130Z,60.23
2018-10-06T04:46:05.869Z,59.96
2018-10-06T04:48:34.610Z,61.06
2018-10-06T04:51:03.500Z,60.69
2018-10-06T04:53:32.316Z,61.01
2018-10-06T04:56:01.319Z,61.01
2018-10-06T04:58:30.347Z,61.17
2018-10-06T05:00:59.247Z,61.04
2018-10-06T05:03:28.233Z,61.26
2018-10-06T05:05:57.265Z,60.94
2018-10-06T05:08:26.012Z,61.29
2018-10-06T05:10:55.023Z,61.85
2018-10-06T05:13:23.873Z,61.30
2018-10-06T05:15:52.819Z,60.94
2018-10-06T05:18:21.751Z,61.48
2018-10-06T05:20:57.042Z,61.30
2018-10-06T05:23:25.927Z,61.19
2018-10-06T05:25:54.977Z,61.06
2018-10-06T05:28:23.880Z,61.37
2018-10-06T05:30:52.880Z,61.44
2018-10-06T05:33:21.693Z,61.58
2018-10-06T05:35:50.483Z,61.49
2018-10-06T05:38:19.270Z,61.56
2018-10-06T05:40:48.251Z,61.30
2018-10-06T05:43:17.059Z,61.58
2018-10-06T05:45:46.097Z,61.32
2018-10-06T05:48:15.020Z,60.93
2018-10-06T05:50:43.979Z,61.90
2018-10-06T05:53:12.900Z,61.51
2018-10-06T05:55:41.788Z,61.28
2018-10-06T05:58:10.632Z,61.40
2018-10-06T06:00:39.619Z,61.29
2018-10-06T06:03:09.199Z,61.61
2018-10-06T06:05:38.110Z,61.33
2018-10-06T06:08:07.064Z,60.87
2018-10-06T06:10:35.856Z,60.09
2018-10-06T06:13:04.694Z,59.55
2018-10-06T06:15:33.691Z,58.82
2018-10-06T06:18:03.173Z,58.31
2018-10-06T06:20:32.447Z,56.54
2018-10-06T06:23:01.303Z,55.80
2018-10-06T06:25:30.196Z,52.28
2018-10-06T06:27:59.016Z,51.81
2018-10-06T06:30:28.224Z,51.60
2018-10-06T06:32:57.429Z,50.82
2018-10-06T06:35:26.414Z,50.72
2018-10-06T06:37:55.557Z,49.25
2018-10-06T06:40:24.525Z,48.21
2018-10-06T06:42:53.946Z,48.36
2018-10-06T06:45:23.042Z,47.43
2018-10-06T06:47:52.035Z,47.81
2018-10-06T06:50:20.841Z,48.10
2018-10-06T06:52:49.825Z,46.77
2018-10-06T06:55:18.628Z,47.70
2018-10-06T06:57:47.550Z,46.12
2018-10-06T07:00:16.582Z,45.75
2018-10-06T07:02:45.607Z,46.47
2018-10-06T07:05:14.806Z,46.08
2018-10-06T07:07:43.868Z,45.58
2018-10-06T07:10:12.936Z,45.86
2018-10-06T07:12:41.919Z,45.11
2018-10-06T07:15:10.878Z,46.49
2018-10-06T07:17:39.834Z,46.33
2018-10-06T07:20:08.926Z,46.58
2018-10-06T07:22:38.274Z,45.42
2018-10-06T07:25:07.470Z,46.18
2018-10-06T07:27:36.510Z,46.23
2018-10-06T07:30:05.894Z,45.54
2018-10-06T07:32:34.900Z,45.21
2018-10-06T07:35:03.894Z,45.64
2018-10-06T07:41:05.376Z,44.30
2018-10-06T07:43:34.339Z,44.85
2018-10-06T07:46:03.464Z,44.73
2018-10-06T07:48:32.458Z,44.63
2018-10-06T07:51:01.385Z,44.54
2018-10-06T07:53:30.283Z,44.05
2018-10-06T07:55:59.422Z,44.86
2018-10-06T07:58:28.639Z,45.65
2018-10-06T08:00:57.867Z,44.70
2018-10-06T08:03:27.210Z,44.94
2018-10-06T08:05:56.130Z,43.75
2018-10-06T08:08:25.118Z,44.01
2018-10-06T08:10:54.129Z,43.69
2018-10-06T08:13:23.108Z,43.96
2018-10-06T08:15:52.432Z,44.01
2018-10-06T08:18:21.380Z,43.69
2018-10-06T08:20:50.388Z,43.55
2018-10-06T08:23:19.274Z,43.71
2018-10-06T08:25:48.165Z,43.73
2018-10-06T08:28:17.695Z,42.27
2018-10-06T08:30:46.735Z,42.95
2018-10-06T08:33:15.686Z,42.91
2018-10-06T08:35:44.647Z,44.20
2018-10-06T08:38:13.613Z,44.84
2018-10-06T08:40:42.551Z,43.84
2018-10-06T08:43:11.693Z,43.91
2018-10-06T08:45:40.685Z,44.27
2018-10-06T08:48:10.204Z,44.71
2018-10-06T08:50:39.380Z,45.26
2018-10-06T08:53:08.448Z,45.00
2018-10-06T08:55:37.300Z,44.96
2018-10-06T08:58:06.624Z,43.91
2018-10-06T09:00:35.776Z,43.50
2018-10-06T09:03:04.444Z,43.13
2018-10-06T09:05:33.581Z,42.75
2018-10-06T09:08:02.659Z,42.29
2018-10-06T09:10:31.458Z,40.43
2018-10-06T09:13:00.339Z,38.31
2018-10-06T09:15:29.336Z,40.23
2018-10-06T09:17:58.125Z,38.78
2018-10-06T09:20:27.037Z,40.62
2018-10-06T09:22:55.898Z,40.42
2018-10-06T09:25:25.205Z,41.41
2018-10-06T09:27:54.169Z,41.75
2018-10-06T09:30:23.024Z,42.51
2018-10-06T09:32:52.161Z,41.28
2018-10-06T09:35:20.864Z,40.42
2018-10-06T09:37:49.635Z,40.40
2018-10-06T09:40:18.918Z,41.28
2018-10-06T09:42:48.032Z,42.40
2018-10-06T09:45:16.963Z,43.00
2018-10-06T09:47:46.106Z,42.95
2018-10-06T09:50:14.913Z,43.27
2018-10-06T09:52:43.748Z,43.04
2018-10-06T09:55:12.660Z,43.54
2018-10-06T09:57:41.650Z,43.90
2018-10-06T10:00:10.809Z,43.56
2018-10-06T10:02:44.662Z,43.26
2018-10-06T10:05:51.813Z,42.02
2018-10-06T10:08:21.167Z,40.76
2018-10-06T10:10:51.071Z,40.34
2018-10-06T10:13:20.574Z,38.68
2018-10-06T10:15:49.529Z,38.25
2018-10-06T10:18:18.905Z,38.69
2018-10-06T10:20:47.887Z,39.60
2018-10-06T10:23:17.190Z,40.14
2018-10-06T10:25:46.385Z,40.65
2018-10-06T10:28:15.338Z,40.37
2018-10-06T10:30:44.462Z,39.24
2018-10-06T10:33:13.705Z,39.11
2018-10-06T10:35:42.496Z,39.57
2018-10-06T10:38:11.213Z,39.32
2018-10-06T10:40:40.289Z,40.60
2018-10-06T10:43:09.472Z,41.64
2018-10-06T10:45:38.650Z,41.09
2018-10-06T10:48:08.298Z,39.79
2018-10-06T10:50:37.722Z,39.37
2018-10-06T10:53:06.842Z,38.66
2018-10-06T10:55:36.110Z,38.79
2018-10-06T10:58:05.174Z,39.19
2018-10-06T11:00:34.079Z,38.79
2018-10-06T11:03:02.976Z,39.62
2018-10-06T11:05:32.134Z,39.50
2018-10-06T11:08:01.092Z,38.58
2018-10-06T11:10:30.200Z,38.11
2018-10-06T11:12:59.317Z,38.62
2018-10-06T11:15:28.451Z,39.46
2018-10-06T11:17:57.381Z,40.10
2018-10-06T11:20:26.276Z,41.42
2018-10-06T11:22:55.021Z,42.44
2018-10-06T11:25:24.080Z,42.15
2018-10-06T11:27:52.845Z,42.50
2018-10-06T11:30:21.857Z,41.99
2018-10-06T11:32:50.995Z,42.10
2018-10-06T11:35:20.301Z,42.21
2018-10-06T11:37:49.448Z,41.75
2018-10-06T11:40:18.513Z,41.49
2018-10-06T11:42:47.608Z,41.73
2018-10-06T11:45:16.718Z,41.02
2018-10-06T11:47:45.771Z,41.24
2018-10-06T11:50:15.540Z,41.71
2018-10-06T11:52:44.497Z,41.13
2018-10-06T11:55:13.347Z,40.48
2018-10-06T11:57:42.238Z,41.47
2018-10-06T12:00:11.357Z,41.45
2018-10-06T12:02:40.361Z,41.49
2018-10-06T12:05:09.320Z,42.01
2018-10-06T12:07:38.390Z,40.91
2018-10-06T12:10:08.115Z,40.00
2018-10-06T12:12:37.152Z,40.76
2018-10-06T12:15:06.322Z,40.37
2018-10-06T12:17:35.791Z,39.93
2018-10-06T12:20:04.943Z,38.91
2018-10-06T12:22:34.257Z,38.93
2018-10-06T12:25:03.957Z,37.96
2018-10-06T12:27:32.880Z,38.18
2018-10-06T12:30:01.945Z,36.75
2018-10-06T12:32:31.043Z,36.97
2018-10-06T12:35:00.191Z,36.40
2018-10-06T12:37:29.311Z,36.05
2018-10-06T12:39:58.133Z,36.93
2018-10-06T12:42:27.192Z,34.98
2018-10-06T12:44:55.897Z,33.84
2018-10-06T12:47:24.797Z,34.21
2018-10-06T12:49:54.310Z,34.65
2018-10-06T12:52:23.508Z,34.46
2018-10-06T12:54:52.404Z,33.79
2018-10-06T12:57:21.297Z,33.62
2018-10-06T12:59:50.299Z,34.58
2018-10-06T13:02:19.323Z,34.34
2018-10-06T13:04:48.316Z,33.70
2018-10-06T13:07:17.206Z,34.52
2018-10-06T13:09:46.348Z,32.92
2018-10-06T13:12:15.253Z,33.73
2018-10-06T13:14:44.091Z,34.56
2018-10-06T13:17:13.117Z,34.21
2018-10-06T13:19:42.041Z,34.19
2018-10-06T13:22:10.926Z,34.05
2018-10-06T13:24:39.925Z,33.25
2018-10-06T13:27:09.100Z,32.53
2018-10-06T13:29:38.055Z,31.90
2018-10-06T13:32:07.567Z,31.87
2018-10-06T13:34:36.558Z,32.97
2018-10-06T13:37:05.808Z,32.42
2018-10-06T13:39:35.118Z,32.09
2018-10-06T13:42:04.285Z,30.65
2018-10-06T13:44:33.537Z,31.32
2018-10-06T13:47:02.821Z,31.98
2018-10-06T13:49:32.099Z,32.79
2018-10-06T13:52:01.027Z,33.09
2018-10-06T13:54:30.157Z,33.44
2018-10-06T13:56:59.065Z,33.44
2018-10-06T13:59:27.849Z,33.68
2018-10-06T14:01:57.059Z,34.58
2018-10-06T14:04:25.989Z,34.80
2018-10-06T14:06:54.969Z,34.58
2018-10-06T14:09:24.181Z,35.59
2018-10-06T14:11:53.069Z,35.37
2018-10-06T14:14:22.250Z,35.43
2018-10-06T14:16:51.280Z,35.71
2018-10-06T14:19:20.182Z,36.35
2018-10-06T14:21:49.083Z,36.55
2018-10-06T14:24:18.232Z,37.28
2018-10-06T14:26:47.250Z,36.89
2018-10-06T14:29:16.357Z,37.60
2018-10-06T14:31:45.664Z,37.67
2018-10-06T14:34:14.509Z,38.32
2018-10-06T14:36:43.633Z,38.35
2018-10-06T14:39:12.692Z,38.34
2018-10-06T14:41:41.662Z,38.83
2018-10-06T14:44:10.593Z,39.36
2018-10-06T14:46:39.901Z,39.24
2018-10-06T14:49:09.077Z,40.61
2018-10-06T14:51:37.954Z,41.22
2018-10-06T14:54:06.932Z,43.65
2018-10-06T14:56:36.063Z,42.57
2018-10-06T14:59:05.511Z,42.72
2018-10-06T15:01:34.813Z,44.61
2018-10-06T15:04:04.084Z,44.96
2018-10-06T15:06:33.216Z,44.42
2018-10-06T15:09:02.342Z,44.62
2018-10-06T15:11:31.505Z,45.13
2018-10-06T15:14:00.612Z,46.19
2018-10-06T15:16:30.620Z,45.17
2018-10-06T15:18:59.691Z,45.71
2018-10-06T15:21:29.027Z,45.96
2018-10-06T15:23:58.221Z,46.27
2018-10-06T15:26:28.283Z,46.16
2018-10-06T15:28:58.106Z,46.69
2018-10-06T15:31:27.193Z,46.81
2018-10-06T15:33:56.159Z,47.43
2018-10-06T15:36:25.347Z,47.21
2018-10-06T15:38:54.070Z,47.51
2018-10-06T15:41:23.309Z,47.76
2018-10-06T15:43:52.356Z,48.10
2018-10-06T15:46:21.456Z,48.43
2018-10-06T15:48:51.019Z,48.99
2018-10-06T15:51:20.128Z,48.82
2018-10-06T15:53:49.368Z,49.58
2018-10-06T15:56:18.919Z,49.60
2018-10-06T15:58:47.821Z,50.30
2018-10-06T16:01:16.764Z,50.43
2018-10-06T16:03:45.774Z,50.80
2018-10-06T16:06:14.822Z,50.88
2018-10-06T16:08:43.873Z,51.76
2018-10-06T16:11:12.621Z,51.52
2018-10-06T16:13:41.584Z,52.26
2018-10-06T16:16:11.223Z,51.81
2018-10-06T16:18:39.992Z,52.09
2018-10-06T16:21:09.026Z,50.94
2018-10-06T16:23:38.225Z,51.91
2018-10-06T16:26:07.393Z,51.85
2018-10-06T16:28:36.407Z,52.19
2018-10-06T16:31:06.300Z,51.93
2018-10-06T16:33:35.485Z,51.81
2018-10-06T16:36:04.902Z,52.85
2018-10-06T16:38:34.874Z,52.93
2018-10-06T16:41:03.860Z,53.89
2018-10-06T16:43:33.108Z,53.52
2018-10-06T16:46:02.329Z,54.69
2018-10-06T16:48:31.587Z,54.87
2018-10-06T16:51:00.751Z,55.59
2018-10-06T16:53:29.789Z,54.81
2018-10-06T16:55:58.989Z,55.70
2018-10-06T16:58:28.218Z,55.82
2018-10-06T17:00:57.286Z,55.97
2018-10-06T17:03:26.757Z,56.43
2018-10-06T17:05:55.864Z,57.22
2018-10-06T17:08:25.208Z,58.42
2018-10-06T17:10:54.038Z,56.97
2018-10-06T17:13:23.342Z,57.58
2018-10-06T17:15:52.424Z,58.17
2018-10-06T17:18:21.400Z,58.14
2018-10-06T17:20:50.525Z,58.03
2018-10-06T17:23:50.365Z,58.16
2018-10-06T17:26:20.154Z,58.89
2018-10-06T17:28:49.383Z,59.32
2018-10-06T17:31:18.541Z,58.98
2018-10-06T17:33:47.768Z,58.85
2018-10-06T17:36:16.697Z,59.34
2018-10-06T17:38:46.178Z,59.49
2018-10-06T17:41:15.927Z,59.96
2018-10-06T17:43:45.208Z,60.26
2018-10-06T17:46:14.251Z,60.76
2018-10-06T17:48:43.591Z,60.74
2018-10-06T17:51:13.169Z,61.51
2018-10-06T17:53:42.316Z,61.21
2018-10-06T17:56:11.540Z,62.81
2018-10-06T17:58:40.645Z,62.07
2018-10-06T18:01:10.070Z,61.98
2018-10-06T18:03:39.199Z,64.21
2018-10-06T18:06:08.605Z,62.81
2018-10-06T18:08:38.326Z,64.08
2018-10-06T18:11:07.942Z,64.24
2018-10-06T18:13:37.426Z,64.47
2018-10-06T18:16:06.970Z,64.63
2018-10-06T18:18:36.360Z,64.20
2018-10-06T18:21:05.605Z,64.56
2018-10-06T18:23:34.824Z,64.54
2018-10-06T18:26:03.930Z,66.09
2018-10-06T18:28:32.943Z,64.84
2018-10-06T18:31:02.017Z,65.41
2018-10-06T18:33:31.064Z,65.58
2018-10-06T18:36:00.082Z,66.08
2018-10-06T18:38:29.249Z,65.53
2018-10-06T18:40:58.379Z,66.71
2018-10-06T18:43:27.568Z,66.48
2018-10-06T18:45:56.757Z,66.50
2018-10-06T18:48:25.877Z,66.08
2018-10-06T18:50:54.806Z,68.07
2018-10-06T18:53:23.763Z,67.36
2018-10-06T18:55:52.888Z,67.03
2018-10-06T18:58:21.869Z,68.05
2018-10-06T19:00:50.935Z,67.84
2018-10-06T19:03:20.321Z,68.02
2018-10-06T19:05:49.514Z,68.59
2018-10-06T19:08:18.741Z,68.16
2018-10-06T19:10:47.772Z,67.96
2018-10-06T19:13:16.634Z,68.06
2018-10-06T19:15:45.657Z,68.77
2018-10-06T19:18:15.029Z,68.56
2018-10-06T19:20:44.351Z,69.43
2018-10-06T19:23:13.140Z,69.38
2018-10-06T19:25:42.601Z,68.57
2018-10-06T19:28:12.383Z,69.91
2018-10-06T19:30:41.982Z,69.16
2018-10-06T19:33:10.927Z,69.77
2018-10-06T19:35:40.123Z,69.43
2018-10-06T19:38:09.418Z,70.06
2018-10-06T19:40:38.773Z,70.17
2018-10-06T19:43:08.425Z,69.19
2018-10-06T19:45:37.766Z,69.62
2018-10-06T19:48:07.060Z,69.36
2018-10-06T19:50:36.675Z,70.21
2018-10-06T19:53:05.759Z,69.71
2018-10-06T19:55:34.723Z,69.85
2018-10-06T19:58:04.478Z,69.68
2018-10-06T20:00:33.874Z,69.65
2018-10-06T20:03:02.976Z,69.28
2018-10-06T20:05:32.116Z,69.72
2018-10-06T20:08:02.101Z,69.81
2018-10-06T20:10:32.236Z,69.99
2018-10-06T20:13:01.492Z,69.84
2018-10-06T20:15:31.055Z,70.14
2018-10-06T20:18:00.306Z,69.72
2018-10-06T20:20:29.529Z,69.42
2018-10-06T20:22:58.412Z,69.75
2018-10-06T20:25:27.498Z,70.23
2018-10-06T20:27:56.665Z,69.86
2018-10-06T20:30:26.215Z,69.98
2018-10-06T20:32:55.744Z,70.61
2018-10-06T20:35:25.610Z,71.46
2018-10-06T20:37:54.475Z,70.97
2018-10-06T20:40:23.479Z,71.10
2018-10-06T20:42:52.854Z,71.16
2018-10-06T20:45:21.911Z,70.76
2018-10-06T20:47:50.934Z,71.42
2018-10-06T20:50:20.119Z,71.39
2018-10-06T20:52:49.363Z,71.74
2018-10-06T20:55:18.347Z,71.64
2018-10-06T20:57:47.624Z,71.76
2018-10-06T21:00:16.857Z,71.42
2018-10-06T21:02:45.920Z,72.00
2018-10-06T21:05:15.247Z,71.28
2018-10-06T21:07:44.378Z,71.02
2018-10-06T21:10:13.611Z,71.33
2018-10-06T21:12:42.734Z,71.19
2018-10-06T21:15:11.726Z,71.14
2018-10-06T21:17:40.925Z,70.32
2018-10-06T21:20:10.281Z,70.99
2018-10-06T21:22:39.371Z,70.56
2018-10-06T21:25:08.843Z,70.89
2018-10-06T21:27:37.867Z,70.36
2018-10-06T21:30:06.924Z,70.13
2018-10-06T21:32:36.089Z,70.16
2018-10-06T21:35:05.971Z,70.27
2018-10-06T21:37:35.000Z,70.21
2018-10-06T21:40:04.102Z,69.71
2018-10-06T21:42:33.029Z,69.73
2018-10-06T21:45:02.582Z,69.64
2018-10-06T21:47:32.269Z,69.54
2018-10-06T21:50:01.544Z,69.61
2018-10-06T21:52:30.313Z,69.40
2018-10-06T21:54:59.570Z,69.55
2018-10-06T21:57:28.894Z,69.62
2018-10-06T21:59:57.895Z,69.50
2018-10-06T22:02:27.239Z,69.82
2018-10-06T22:04:56.185Z,69.21
2018-10-06T22:07:25.359Z,69.44
2018-10-06T22:09:54.553Z,69.37
2018-10-06T22:12:23.835Z,69.72
2018-10-06T22:14:52.931Z,69.79
2018-10-06T22:17:21.970Z,69.75
2018-10-06T22:19:50.928Z,69.03
2018-10-06T22:22:19.907Z,69.44
2018-10-06T22:24:48.971Z,69.59
2018-10-06T22:27:18.374Z,69.82
2018-10-06T22:29:47.637Z,69.56
2018-10-06T22:32:16.699Z,69.76
2018-10-06T22:34:45.723Z,70.09
2018-10-06T22:37:14.762Z,69.34
2018-10-06T22:39:44.244Z,69.83
2018-10-06T22:42:13.576Z,69.75
2018-10-06T22:44:42.556Z,70.10
2018-10-06T22:47:11.647Z,69.47
2018-10-06T22:49:40.433Z,69.96
2018-10-06T22:52:09.240Z,70.06
2018-10-06T22:54:38.717Z,69.90
2018-10-06T22:57:07.890Z,69.70
2018-10-06T22:59:36.670Z,69.52
2018-10-06T23:02:05.554Z,70.05
2018-10-06T23:04:34.415Z,69.90
2018-10-06T23:07:03.424Z,69.85
2018-10-06T23:09:32.269Z,70.11
2018-10-06T23:12:01.397Z,70.85
2018-10-06T23:14:30.297Z,70.73
2018-10-06T23:16:59.160Z,70.06
2018-10-06T23:19:27.989Z,70.51
2018-10-06T23:21:57.133Z,70.91
2018-10-06T23:24:26.175Z,71.04
2018-10-06T23:26:55.041Z,70.86
2018-10-06T23:29:24.160Z,70.79
2018-10-06T23:31:53.157Z,70.82
2018-10-06T23:34:22.119Z,70.55
2018-10-06T23:36:50.980Z,70.71
2018-10-06T23:39:19.708Z,70.93
2018-10-06T23:41:49.684Z,70.62
2018-10-06T23:44:18.750Z,70.34
2018-10-06T23:46:47.631Z,70.72
2018-10-06T23:52:48.777Z,70.21
2018-10-06T23:55:17.503Z,70.15
2018-10-06T23:57:46.598Z,70.25
